Time;durP1;ratioP1;P1;durP2;ratioP2;P2;SDS_P1;SDS_P2;PMS_P1;PMS_P2;Temp;Humidity;BMP_temperature;BMP_pressure;BME280_temperature;BME280_humidity;BME280_pressure;Samples;Min_cycle;Max_cycle;Signal;HPM_P1;HPM_P2
2022/06/06 00:00:00;;;;;;;50.27;28.97;;;16.20;99.90;;;;;;5074769;28;20971;-67
2022/06/06 00:02:28;;;;;;;44.33;27.70;;;16.20;99.90;;;;;;5072052;28;20469;-65
2022/06/06 00:04:57;;;;;;;51.67;31.03;;;16.30;99.90;;;;;;5061132;28;20858;-65
2022/06/06 00:07:26;;;;;;;45.63;27.40;;;16.30;99.90;;;;;;5075837;28;20521;-67
2022/06/06 00:09:53;;;;;;;47.93;28.03;;;16.30;99.90;;;;;;5068228;28;20478;-66
2022/06/06 00:12:23;;;;;;;48.47;28.63;;;16.40;99.90;;;;;;5074592;28;20466;-67
2022/06/06 00:14:51;;;;;;;45.03;25.37;;;16.40;99.90;;;;;;5076590;28;20951;-66
2022/06/06 00:17:18;;;;;;;43.40;27.27;;;16.40;99.90;;;;;;5071718;28;20458;-65
2022/06/06 00:19:45;;;;;;;61.40;28.63;;;16.30;99.90;;;;;;5071858;28;20462;-67
2022/06/06 00:22:12;;;;;;;46.27;27.03;;;16.40;99.90;;;;;;5065741;28;20460;-69
2022/06/06 00:24:39;;;;;;;43.97;23.53;;;16.40;99.90;;;;;;5072251;28;20740;-68
2022/06/06 00:27:06;;;;;;;45.10;25.37;;;16.30;99.90;;;;;;5070541;28;20462;-68
2022/06/06 00:29:35;;;;;;;50.30;27.77;;;16.30;99.90;;;;;;5074159;28;20456;-70
2022/06/06 00:34:51;;;;;;;47.77;25.87;;;16.40;99.90;;;;;;5070249;28;20457;-69
2022/06/06 00:37:23;;;;;;;46.33;26.20;;;16.40;99.90;;;;;;5071551;28;20458;-69
2022/06/06 00:39:51;;;;;;;44.03;26.07;;;16.40;99.90;;;;;;5054707;28;20463;-69
2022/06/06 00:42:21;;;;;;;45.73;26.67;;;16.40;99.90;;;;;;5070128;28;20476;-68
2022/06/06 00:45:09;;;;;;;42.20;26.83;;;16.30;99.90;;;;;;5080687;28;20852;-69
2022/06/06 00:47:40;;;;;;;52.67;26.40;;;16.40;99.90;;;;;;5069264;28;20458;-68
2022/06/06 00:50:13;;;;;;;48.70;28.67;;;16.30;99.90;;;;;;5065481;28;20463;-68
2022/06/06 00:52:42;;;;;;;47.67;26.30;;;16.40;99.90;;;;;;5078884;28;20466;-69
2022/06/06 00:55:13;;;;;;;45.37;27.00;;;16.40;99.90;;;;;;5076924;28;20462;-68
2022/06/06 00:57:47;;;;;;;46.60;28.20;;;16.40;99.90;;;;;;5076090;28;20466;-68
2022/06/06 01:00:17;;;;;;;40.07;25.80;;;16.50;99.90;;;;;;5074073;28;20475;-68
2022/06/06 01:02:49;;;;;;;45.37;24.90;;;16.40;99.90;;;;;;5077708;28;21002;-68
2022/06/06 01:05:17;;;;;;;37.30;22.90;;;16.20;99.90;;;;;;5066873;28;20494;-68
2022/06/06 01:07:44;;;;;;;35.20;22.10;;;16.40;99.90;;;;;;5075105;28;20458;-67
2022/06/06 01:10:12;;;;;;;29.00;18.37;;;16.50;99.90;;;;;;5069859;28;20458;-65
2022/06/06 01:12:40;;;;;;;34.53;21.83;;;16.40;99.90;;;;;;5075109;28;20485;-65
2022/06/06 01:15:10;;;;;;;35.80;22.33;;;16.40;99.90;;;;;;5069313;28;20463;-65
2022/06/06 01:17:45;;;;;;;31.53;19.53;;;16.40;99.90;;;;;;5078886;28;20470;-66
2022/06/06 01:20:33;;;;;;;33.47;19.37;;;16.40;99.90;;;;;;5075048;28;20461;-67
2022/06/06 01:23:26;;;;;;;31.13;20.97;;;16.40;99.90;;;;;;5074921;28;20473;-66
2022/06/06 01:26:16;;;;;;;28.40;19.40;;;16.30;99.90;;;;;;5068185;28;20994;-65
2022/06/06 01:28:52;;;;;;;30.87;19.73;;;16.30;99.90;;;;;;5077375;28;20463;-67
2022/06/06 01:31:25;;;;;;;27.87;19.00;;;16.30;99.90;;;;;;5067572;28;20462;-66
2022/06/06 01:33:55;;;;;;;27.47;18.53;;;16.30;99.90;;;;;;5074768;28;20486;-65
2022/06/06 01:36:24;;;;;;;26.93;17.67;;;16.30;99.90;;;;;;5070084;28;20876;-66
2022/06/06 01:38:51;;;;;;;30.40;18.57;;;16.20;99.90;;;;;;5068833;28;20454;-66
2022/06/06 01:41:31;;;;;;;29.53;17.47;;;16.40;99.90;;;;;;5074161;28;20470;-66
2022/06/06 01:44:07;;;;;;;25.97;17.27;;;16.30;99.90;;;;;;5074087;28;20462;-66
2022/06/06 01:46:37;;;;;;;24.73;15.50;;;16.40;99.90;;;;;;5077526;28;20489;-66
2022/06/06 01:49:07;;;;;;;29.20;18.17;;;16.40;99.90;;;;;;5063884;28;20468;-66
2022/06/06 01:51:34;;;;;;;24.50;15.60;;;16.30;99.90;;;;;;5075737;28;20486;-66
2022/06/06 01:54:01;;;;;;;24.10;16.00;;;16.40;99.90;;;;;;5070136;28;20974;-66
2022/06/06 01:56:31;;;;;;;21.50;16.20;;;16.40;99.90;;;;;;5080041;28;20462;-65
2022/06/06 01:58:59;;;;;;;23.07;15.47;;;16.40;99.90;;;;;;5070372;28;20462;-65
2022/06/06 02:01:30;;;;;;;21.87;15.63;;;16.40;99.90;;;;;;5076274;28;20457;-67
2022/06/06 02:03:58;;;;;;;23.10;14.10;;;16.20;99.90;;;;;;5069051;28;21006;-65
2022/06/06 02:06:26;;;;;;;28.20;15.30;;;16.20;99.90;;;;;;5072084;28;20580;-67
2022/06/06 02:08:52;;;;;;;21.53;14.50;;;16.30;99.90;;;;;;5075813;28;20475;-65
2022/06/06 02:11:20;;;;;;;20.30;13.03;;;16.30;99.90;;;;;;5081982;28;20450;-66
2022/06/06 02:13:46;;;;;;;15.40;13.03;;;16.20;99.90;;;;;;5064897;28;20479;-65
2022/06/06 02:16:15;;;;;;;16.53;12.93;;;16.10;99.90;;;;;;5077232;28;20450;-66
2022/06/06 02:18:43;;;;;;;15.70;12.47;;;16.10;99.90;;;;;;5077670;28;20463;-66
2022/06/06 02:21:10;;;;;;;17.20;11.17;;;16.20;99.90;;;;;;5066593;28;20455;-66
2022/06/06 02:23:39;;;;;;;15.60;11.07;;;16.20;99.90;;;;;;5075361;28;20462;-66
2022/06/06 02:26:06;;;;;;;16.40;13.13;;;16.10;99.90;;;;;;5065613;28;21002;-67
2022/06/06 02:28:33;;;;;;;20.93;12.50;;;15.90;99.90;;;;;;5074406;28;20472;-66
2022/06/06 02:31:00;;;;;;;19.20;13.33;;;15.90;99.90;;;;;;5067944;28;20454;-66
2022/06/06 02:33:28;;;;;;;14.60;11.60;;;15.70;99.90;;;;;;5079170;28;20494;-66
2022/06/06 02:35:55;;;;;;;15.10;12.90;;;15.60;99.90;;;;;;5068571;28;20474;-67
2022/06/06 02:38:24;;;;;;;18.10;11.83;;;15.60;99.90;;;;;;5073252;28;20473;-66
2022/06/06 02:40:51;;;;;;;16.73;13.50;;;15.50;99.90;;;;;;5065416;28;20808;-65
2022/06/06 02:43:19;;;;;;;16.53;13.87;;;15.50;99.90;;;;;;5076877;28;20463;-65
2022/06/06 02:45:48;;;;;;;18.27;11.17;;;15.50;99.90;;;;;;5079961;28;20470;-66
2022/06/06 02:48:16;;;;;;;18.07;11.67;;;15.50;99.90;;;;;;5063531;28;20469;-65
2022/06/06 02:50:45;;;;;;;14.50;11.90;;;15.50;99.90;;;;;;5066389;28;20547;-65
2022/06/06 02:53:12;;;;;;;17.37;11.87;;;15.50;99.90;;;;;;5073723;28;20509;-67
2022/06/06 02:55:39;;;;;;;14.57;11.50;;;15.50;99.90;;;;;;5072006;28;20505;-66
2022/06/06 02:58:06;;;;;;;19.30;12.10;;;15.60;99.90;;;;;;5066937;28;20819;-66
2022/06/06 03:00:41;;;;;;;17.03;13.33;;;15.70;99.90;;;;;;5073139;28;20475;-66
2022/06/06 03:03:08;;;;;;;15.47;12.40;;;15.80;99.90;;;;;;5077507;28;20461;-66
2022/06/06 03:05:50;;;;;;;17.50;12.10;;;15.80;99.90;;;;;;5062677;28;20498;-67
2022/06/06 03:08:29;;;;;;;19.80;12.83;;;15.70;99.90;;;;;;5076462;28;20462;-66
2022/06/06 03:11:04;;;;;;;15.10;12.63;;;15.70;99.90;;;;;;5060441;28;20954;-66
2022/06/06 03:13:49;;;;;;;15.60;12.27;;;15.80;99.90;;;;;;5074321;28;20484;-66
2022/06/06 03:22:21;;;;;;;13.93;12.43;;;15.70;99.90;;;;;;5073988;28;20468;-68
2022/06/06 03:24:59;;;;;;;18.70;13.47;;;15.70;99.90;;;;;;5064112;28;20466;-69
2022/06/06 03:27:34;;;;;;;19.47;14.00;;;15.70;99.90;;;;;;5069626;28;20450;-68
2022/06/06 03:30:06;;;;;;;24.63;14.30;;;15.70;99.90;;;;;;5068791;28;20544;-66
2022/06/06 03:32:46;;;;;;;17.60;14.30;;;15.70;99.90;;;;;;5060597;28;20455;-67
2022/06/06 03:35:24;;;;;;;20.10;15.23;;;15.70;99.90;;;;;;5063172;28;20470;-67
2022/06/06 03:38:00;;;;;;;27.70;15.53;;;15.60;99.90;;;;;;5069198;28;20454;-66
2022/06/06 03:40:35;;;;;;;21.53;14.63;;;15.70;99.90;;;;;;5070516;28;20532;-67
2022/06/06 03:43:07;;;;;;;17.20;13.73;;;15.70;99.90;;;;;;5075544;28;20459;-67
2022/06/06 03:45:42;;;;;;;21.73;15.73;;;15.70;99.90;;;;;;5071656;28;20524;-68
2022/06/06 03:48:21;;;;;;;18.63;14.00;;;15.80;99.90;;;;;;5072259;28;20461;-67
2022/06/06 03:50:58;;;;;;;16.87;13.53;;;15.70;99.90;;;;;;5069342;28;20474;-67
2022/06/06 03:53:35;;;;;;;15.90;14.13;;;15.60;99.90;;;;;;5070716;28;20461;-67
2022/06/06 03:56:16;;;;;;;23.10;14.43;;;15.40;99.90;;;;;;5070092;28;20465;-67
2022/06/06 03:58:45;;;;;;;19.67;15.17;;;15.30;99.90;;;;;;5079163;28;20468;-67
2022/06/06 04:01:14;;;;;;;19.17;14.47;;;15.30;99.90;;;;;;5068515;28;20473;-66
2022/06/06 04:03:44;;;;;;;16.53;13.93;;;15.30;99.90;;;;;;5061585;28;20460;-68
2022/06/06 04:06:11;;;;;;;19.27;14.47;;;15.40;99.90;;;;;;5066704;28;20501;-68
2022/06/06 04:08:39;;;;;;;23.40;14.70;;;15.40;99.90;;;;;;5040490;28;20574;-67
2022/06/06 04:11:26;;;;;;;21.50;14.33;;;15.40;99.90;;;;;;5040745;28;20469;-67
2022/06/06 04:14:03;;;;;;;19.43;15.03;;;15.50;99.90;;;;;;5042424;28;20483;-68
2022/06/06 04:16:44;;;;;;;16.03;12.73;;;15.40;99.90;;;;;;5044086;28;20460;-67
2022/06/06 04:19:21;;;;;;;17.77;13.80;;;15.40;99.90;;;;;;5046522;28;20458;-68
2022/06/06 04:21:56;;;;;;;22.17;14.10;;;15.40;99.90;;;;;;5045702;28;21237;-67
2022/06/06 04:24:53;;;;;;;20.70;13.43;;;15.40;99.90;;;;;;5044490;28;21231;-68
2022/06/06 04:27:29;;;;;;;18.13;14.37;;;15.30;99.90;;;;;;5044784;28;21011;-67
2022/06/06 04:30:02;;;;;;;17.17;14.27;;;15.20;99.90;;;;;;5045573;28;21007;-67
2022/06/06 04:32:41;;;;;;;19.80;14.93;;;15.10;99.90;;;;;;5044764;28;20474;-68
2022/06/06 04:35:17;;;;;;;16.70;13.97;;;15.10;99.90;;;;;;5045398;28;21326;-68
2022/06/06 04:37:51;;;;;;;19.23;14.43;;;15.20;99.90;;;;;;5045820;28;20463;-67
2022/06/06 04:40:35;;;;;;;20.33;13.40;;;15.10;99.90;;;;;;5046019;28;20881;-68
2022/06/06 04:43:09;;;;;;;14.43;12.97;;;15.10;99.90;;;;;;5045806;28;20465;-67
2022/06/06 04:45:43;;;;;;;24.10;14.13;;;15.00;99.90;;;;;;5046487;28;20506;-68
2022/06/06 04:48:11;;;;;;;19.77;13.37;;;15.00;99.90;;;;;;5043815;28;20467;-66
2022/06/06 04:50:42;;;;;;;21.33;14.00;;;15.00;99.90;;;;;;5045153;28;20480;-68
2022/06/06 04:53:13;;;;;;;21.23;13.67;;;15.00;99.90;;;;;;5045406;28;20455;-68
2022/06/06 04:55:43;;;;;;;17.70;14.47;;;14.90;99.90;;;;;;5046037;28;20475;-69
2022/06/06 04:58:12;;;;;;;17.70;14.00;;;14.90;99.90;;;;;;5046433;28;20455;-68
2022/06/06 05:00:40;;;;;;;15.50;13.87;;;14.80;99.90;;;;;;5046126;28;22535;-68
2022/06/06 05:03:07;;;;;;;17.23;14.33;;;14.90;99.90;;;;;;5045248;28;20472;-67
2022/06/06 05:05:45;;;;;;;16.73;13.33;;;15.00;99.90;;;;;;5044724;28;20487;-67
2022/06/06 05:08:24;;;;;;;17.27;13.90;;;14.90;99.90;;;;;;5044695;28;20473;-68
2022/06/06 05:11:14;;;;;;;15.80;14.10;;;14.90;99.90;;;;;;5045676;28;20462;-67
2022/06/06 05:14:07;;;;;;;15.70;13.83;;;15.00;99.90;;;;;;5044790;28;21099;-68
2022/06/06 05:16:56;;;;;;;15.37;13.87;;;15.00;99.90;;;;;;5043354;28;20809;-68
2022/06/06 05:19:48;;;;;;;18.33;12.90;;;15.00;99.90;;;;;;5045930;28;20859;-67
2022/06/06 05:22:32;;;;;;;14.67;13.17;;;15.00;99.90;;;;;;5043689;28;20471;-68
2022/06/06 05:25:09;;;;;;;14.13;12.63;;;15.00;99.90;;;;;;5043593;28;20465;-67
2022/06/06 05:27:57;;;;;;;14.13;12.77;;;15.10;99.90;;;;;;5044163;28;20497;-67
2022/06/06 05:30:32;;;;;;;13.93;12.50;;;15.20;99.90;;;;;;5044407;28;21003;-68
2022/06/06 05:33:06;;;;;;;11.33;10.30;;;15.30;99.90;;;;;;5045604;28;20477;-68
2022/06/06 05:36:04;;;;;;;14.97;13.47;;;15.30;99.90;;;;;;5045100;28;20458;-68
2022/06/06 05:38:50;;;;;;;12.97;11.87;;;15.30;99.90;;;;;;5044314;28;20475;-68
2022/06/06 05:41:27;;;;;;;12.60;11.60;;;15.20;99.90;;;;;;5044689;28;20455;-67
2022/06/06 05:44:06;;;;;;;12.77;11.50;;;15.30;99.90;;;;;;5045790;28;20562;-68
2022/06/06 05:46:41;;;;;;;13.30;11.97;;;15.40;99.90;;;;;;5044078;28;20488;-68
2022/06/06 05:49:26;;;;;;;12.90;11.80;;;15.50;99.90;;;;;;5043899;28;20834;-67
2022/06/06 05:52:06;;;;;;;12.63;11.33;;;15.60;99.90;;;;;;5043792;28;20459;-69
2022/06/06 05:54:52;;;;;;;12.00;10.90;;;15.70;99.90;;;;;;5043817;28;20471;-66
2022/06/06 05:57:39;;;;;;;11.40;10.50;;;15.70;99.90;;;;;;5044717;28;21016;-67
2022/06/06 06:00:17;;;;;;;12.33;10.97;;;15.70;99.90;;;;;;5045078;28;20478;-68
2022/06/06 06:03:24;;;;;;;12.17;11.37;;;15.70;99.90;;;;;;5060314;28;20478;-67
2022/06/06 06:06:01;;;;;;;12.23;11.20;;;15.70;99.90;;;;;;5053263;28;20460;-69
2022/06/06 06:08:55;;;;;;;13.13;11.97;;;15.70;99.90;;;;;;5041492;28;20449;-67
2022/06/06 06:11:33;;;;;;;12.40;11.50;;;15.70;99.90;;;;;;5040269;28;20463;-67
2022/06/06 06:14:15;;;;;;;11.77;11.00;;;15.60;99.90;;;;;;5042261;28;20479;-68
2022/06/06 06:16:50;;;;;;;12.13;10.97;;;15.70;99.90;;;;;;5041132;28;20570;-68
2022/06/06 06:19:21;;;;;;;12.03;11.13;;;15.80;99.90;;;;;;5042248;28;20515;-67
2022/06/06 06:21:51;;;;;;;12.77;12.00;;;15.90;99.90;;;;;;5042745;28;20463;-67
2022/06/06 06:24:20;;;;;;;12.90;12.20;;;15.90;99.90;;;;;;5040898;28;20484;-68
2022/06/06 06:26:48;;;;;;;13.20;12.40;;;15.90;99.90;;;;;;5070201;28;20540;-68
2022/06/06 06:29:15;;;;;;;13.27;12.30;;;15.90;99.90;;;;;;5067069;28;20470;-67
2022/06/06 06:32:02;;;;;;;13.57;12.67;;;15.90;99.90;;;;;;5069895;28;20464;-68
2022/06/06 06:34:41;;;;;;;13.33;12.30;;;16.00;99.90;;;;;;5057757;28;20482;-69
2022/06/06 06:37:21;;;;;;;12.63;11.93;;;16.10;99.90;;;;;;5042953;28;20994;-68
2022/06/06 06:40:06;;;;;;;12.70;11.90;;;16.20;99.90;;;;;;5039371;28;20481;-67
2022/06/06 06:42:50;;;;;;;23.60;12.57;;;16.30;99.90;;;;;;5042815;28;20458;-68
2022/06/06 06:45:22;;;;;;;15.30;12.37;;;16.10;99.90;;;;;;5041884;28;20463;-68
2022/06/06 06:47:53;;;;;;;13.33;12.60;;;16.40;99.90;;;;;;5043078;28;20498;-68
2022/06/06 06:50:23;;;;;;;12.73;12.03;;;16.50;99.90;;;;;;5042307;28;20466;-70
2022/06/06 06:53:03;;;;;;;12.87;12.17;;;16.50;99.90;;;;;;5043777;28;20467;-69
2022/06/06 06:55:38;;;;;;;12.80;12.00;;;16.60;99.90;;;;;;5040542;28;20454;-68
2022/06/06 06:58:24;;;;;;;12.80;12.00;;;16.50;99.90;;;;;;5040037;28;20463;-69
2022/06/06 07:00:56;;;;;;;13.20;12.40;;;16.50;99.90;;;;;;5039310;28;21422;-68
2022/06/06 07:09:37;;;;;;;12.10;11.50;;;16.70;99.90;;;;;;5039718;28;21162;-68
2022/06/06 07:12:20;;;;;;;12.83;12.13;;;16.80;99.90;;;;;;5039931;28;20454;-68
2022/06/06 07:15:13;;;;;;;12.20;11.60;;;16.80;99.90;;;;;;5042135;28;20491;-68
2022/06/06 07:17:45;;;;;;;13.20;12.40;;;16.80;99.90;;;;;;5040609;28;20463;-68
2022/06/06 07:20:15;;;;;;;13.83;12.20;;;16.70;99.90;;;;;;5041003;28;20521;-70
2022/06/06 07:23:02;;;;;;;12.47;11.87;;;16.90;99.90;;;;;;5040351;28;21037;-69
2022/06/06 07:25:32;;;;;;;12.50;11.70;;;17.00;99.90;;;;;;5040320;28;20464;-68
2022/06/06 07:28:00;;;;;;;13.20;12.50;;;17.10;99.90;;;;;;5046915;28;20494;-68
2022/06/06 07:30:30;;;;;;;13.23;12.47;;;17.30;99.90;;;;;;5060921;28;20501;-67
2022/06/06 07:33:06;;;;;;;13.33;12.27;;;17.30;99.90;;;;;;5047887;28;20490;-67
2022/06/06 07:35:41;;;;;;;13.23;12.53;;;17.30;99.90;;;;;;5041093;28;20465;-68
2022/06/06 07:38:22;;;;;;;12.53;11.93;;;17.40;99.90;;;;;;5041170;28;20465;-68
2022/06/06 07:41:03;;;;;;;12.97;12.37;;;17.40;99.90;;;;;;5041626;28;20497;-69
2022/06/06 07:43:46;;;;;;;13.20;12.40;;;17.50;99.90;;;;;;5040077;28;20507;-67
2022/06/06 07:46:23;;;;;;;13.30;12.40;;;17.50;99.90;;;;;;5040782;28;20829;-68
2022/06/06 07:48:56;;;;;;;12.50;11.90;;;17.60;99.90;;;;;;5040213;28;20480;-67
2022/06/06 07:51:37;;;;;;;12.53;11.73;;;17.70;99.90;;;;;;5038165;28;20997;-68
2022/06/06 07:54:14;;;;;;;11.53;11.03;;;17.90;99.90;;;;;;5039162;28;20463;-68
2022/06/06 07:56:48;;;;;;;12.30;11.57;;;18.10;99.90;;;;;;5037147;28;20490;-69
2022/06/06 07:59:25;;;;;;;12.10;11.60;;;18.20;99.90;;;;;;5038941;28;20636;-66
2022/06/06 08:02:03;;;;;;;13.00;12.20;;;18.40;99.90;;;;;;5040602;28;20458;-67
2022/06/06 08:04:42;;;;;;;13.70;13.00;;;18.80;99.90;;;;;;5039219;28;20486;-69
2022/06/06 08:07:18;;;;;;;15.00;12.50;;;19.10;99.90;;;;;;5041425;28;21495;-67
2022/06/06 08:10:01;;;;;;;13.50;12.80;;;19.20;99.90;;;;;;5040713;28;20470;-66
2022/06/06 08:12:41;;;;;;;13.60;12.90;;;19.70;99.90;;;;;;5041750;28;20466;-66
2022/06/06 08:15:16;;;;;;;13.70;12.90;;;19.80;99.90;;;;;;5041915;28;20842;-67
2022/06/06 08:17:56;;;;;;;13.60;12.80;;;19.90;99.90;;;;;;5041011;28;20470;-66
2022/06/06 08:20:31;;;;;;;14.20;13.30;;;20.30;99.90;;;;;;5038136;28;20508;-67
2022/06/06 08:23:02;;;;;;;14.13;13.43;;;20.70;99.90;;;;;;5039756;28;20466;-66
2022/06/06 08:25:31;;;;;;;14.10;13.50;;;21.20;99.90;;;;;;5040747;28;20463;-66
2022/06/06 08:27:59;;;;;;;14.10;13.50;;;20.90;99.90;;;;;;5040857;28;20497;-66
2022/06/06 08:30:26;;;;;;;14.33;13.67;;;20.70;99.90;;;;;;5038411;28;20449;-66
2022/06/06 08:32:53;;;;;;;13.47;12.87;;;21.00;99.90;;;;;;5041144;28;20458;-65
2022/06/06 08:35:21;;;;;;;14.03;13.23;;;21.20;99.90;;;;;;5039999;28;20503;-66
2022/06/06 08:38:02;;;;;;;14.50;13.33;;;20.90;99.90;;;;;;5040210;28;20447;-66
2022/06/06 08:41:00;;;;;;;13.70;13.10;;;21.10;99.90;;;;;;5040447;28;20475;-66
2022/06/06 08:43:59;;;;;;;13.50;12.90;;;21.30;99.90;;;;;;5040494;28;20964;-66
2022/06/06 08:46:45;;;;;;;13.73;13.10;;;21.50;99.90;;;;;;5040014;28;20472;-66
2022/06/06 08:52:31;;;;;;;14.30;13.40;;;21.40;99.90;;;;;;5039673;28;21050;-66
2022/06/06 08:55:28;;;;;;;14.43;13.53;;;21.80;99.90;;;;;;5040555;28;20467;-66
2022/06/06 08:58:21;;;;;;;14.70;13.90;;;22.60;99.90;;;;;;5002702;28;20464;-66
2022/06/06 09:00:57;;;;;;;14.23;13.63;;;22.40;99.90;;;;;;5038243;28;20451;-66
2022/06/06 09:04:04;;;;;;;14.67;13.97;;;22.90;99.90;;;;;;5042994;28;20465;-67
2022/06/06 09:07:12;;;;;;;14.50;13.90;;;22.80;99.90;;;;;;4991898;28;20454;-66
2022/06/06 09:10:12;;;;;;;15.03;14.23;;;23.60;97.90;;;;;;5044223;28;20466;-67
2022/06/06 09:13:29;;;;;;;15.60;14.60;;;23.40;99.10;;;;;;5044338;28;20471;-67
2022/06/06 09:16:25;;;;;;;14.37;13.67;;;21.80;99.90;;;;;;5043673;28;20960;-68
2022/06/06 09:19:33;;;;;;;14.80;14.10;;;20.80;99.90;;;;;;5060725;28;20458;-68
2022/06/06 09:22:36;;;;;;;15.50;14.40;;;20.60;99.90;;;;;;5006416;28;20877;-67
2022/06/06 09:25:38;;;;;;;15.50;14.50;;;20.50;99.90;;;;;;5044610;28;21038;-67
2022/06/06 09:28:45;;;;;;;14.43;13.73;;;20.50;99.90;;;;;;5043525;28;20489;-67
2022/06/06 09:31:50;;;;;;;14.20;13.40;;;20.90;99.90;;;;;;5043297;28;20471;-68
2022/06/06 09:34:49;;;;;;;14.80;14.00;;;21.10;99.90;;;;;;5044925;28;20618;-67
2022/06/06 09:37:33;;;;;;;15.03;14.23;;;21.40;99.90;;;;;;5053316;28;20559;-66
2022/06/06 09:40:19;;;;;;;14.60;13.73;;;21.70;99.90;;;;;;5062067;28;20517;-68
2022/06/06 09:43:09;;;;;;;15.00;14.00;;;21.80;99.90;;;;;;5071664;28;20463;-69
2022/06/06 09:45:59;;;;;;;13.80;13.20;;;21.70;99.90;;;;;;5072570;28;20812;-68
2022/06/06 09:49:10;;;;;;;14.57;13.83;;;21.60;99.90;;;;;;5040211;28;21051;-67
2022/06/06 09:52:28;;;;;;;13.93;13.20;;;21.30;99.90;;;;;;5040359;28;20463;-67
2022/06/06 09:59:13;;;;;;;15.10;14.40;;;20.60;99.90;;;;;;5039086;28;20549;-69
2022/06/06 10:02:21;;;;;;;14.30;13.50;;;21.30;99.90;;;;;;5037964;28;20667;-68
2022/06/06 10:05:25;;;;;;;14.57;13.97;;;21.40;99.90;;;;;;5025273;28;20490;-68
2022/06/06 10:08:35;;;;;;;13.63;13.03;;;21.60;99.90;;;;;;4987765;28;20607;-68
2022/06/06 10:11:43;;;;;;;13.60;13.00;;;22.00;99.90;;;;;;5011660;28;20971;-70
2022/06/06 10:14:40;;;;;;;15.17;14.47;;;22.40;99.90;;;;;;5023762;28;20484;-68
2022/06/06 10:17:27;;;;;;;14.27;13.47;;;23.10;99.90;;;;;;5046360;28;20474;-69
2022/06/06 10:20:24;;;;;;;13.90;13.30;;;23.10;99.90;;;;;;5027353;28;21008;-68
2022/06/06 10:23:24;;;;;;;13.83;13.13;;;22.90;99.70;;;;;;5014829;28;20472;-68
2022/06/06 10:26:12;;;;;;;13.73;13.07;;;22.70;99.30;;;;;;5014783;28;20471;-66
2022/06/06 10:29:04;;;;;;;13.43;12.93;;;23.20;99.90;;;;;;5016238;28;20848;-68
2022/06/06 10:31:50;;;;;;;14.10;13.07;;;24.40;98.70;;;;;;5014855;28;20852;-70
2022/06/06 10:34:51;;;;;;;14.27;13.50;;;24.30;97.00;;;;;;5017319;28;20472;-69
2022/06/06 10:37:46;;;;;;;13.73;13.13;;;25.20;95.90;;;;;;5017564;28;20452;-67
2022/06/06 10:40:31;;;;;;;13.57;12.97;;;25.10;95.30;;;;;;5016627;28;20471;-67
2022/06/06 10:43:17;;;;;;;14.07;13.27;;;25.20;95.10;;;;;;5016911;28;20873;-69
2022/06/06 10:45:48;;;;;;;14.10;13.30;;;26.10;94.80;;;;;;5015010;28;20467;-68
2022/06/06 10:48:44;;;;;;;13.97;13.27;;;25.40;94.70;;;;;;5016055;28;20500;-67
2022/06/06 10:51:43;;;;;;;14.37;13.20;;;24.40;95.40;;;;;;5014295;28;20499;-66
2022/06/06 10:54:41;;;;;;;14.63;13.83;;;24.20;96.30;;;;;;5015625;28;20499;-67
2022/06/06 10:57:49;;;;;;;14.63;13.83;;;23.80;96.10;;;;;;5016428;28;20479;-68
2022/06/06 11:00:22;;;;;;;14.63;13.73;;;23.30;98.10;;;;;;5014978;28;20969;-67
2022/06/06 11:03:21;;;;;;;37.27;19.67;;;21.90;99.90;;;;;;5014453;28;20468;-66
2022/06/06 11:06:15;;;;;;;59.43;34.63;;;20.60;99.90;;;;;;5016034;28;20495;-67
2022/06/06 11:09:28;;;;;;;27.50;25.40;;;18.30;99.90;;;;;;5015836;28;20496;-67
2022/06/06 11:12:34;;;;;;;23.80;22.10;;;16.70;99.90;;;;;;5017080;28;20566;-66
2022/06/06 11:15:05;;;;;;;19.17;18.17;;;15.90;99.90;;;;;;5010911;28;20469;-65
2022/06/06 11:18:27;;;;;;;17.03;15.93;;;15.80;99.90;;;;;;5017676;28;20466;-65
2022/06/06 11:21:29;;;;;;;10.43;9.80;;;16.00;99.90;;;;;;5017556;28;20456;-66
2022/06/06 11:24:07;;;;;;;9.23;8.67;;;17.10;99.90;;;;;;5017412;28;20507;-65
2022/06/06 11:27:10;;;;;;;6.90;6.50;;;18.10;99.90;;;;;;5016890;28;20566;-66
2022/06/06 11:30:11;;;;;;;8.17;7.30;;;19.40;99.90;;;;;;4974590;28;20818;-66
2022/06/06 11:33:09;;;;;;;8.67;8.20;;;19.90;99.90;;;;;;5015842;28;20451;-66
2022/06/06 11:35:46;;;;;;;10.20;9.70;;;20.60;99.90;;;;;;5017054;28;21530;-65
2022/06/06 11:38:53;;;;;;;13.00;12.40;;;21.60;99.90;;;;;;5015049;28;21063;-67
2022/06/06 11:41:29;;;;;;;17.50;16.23;;;22.30;99.90;;;;;;4997841;28;21546;-66
2022/06/06 11:44:12;;;;;;;16.87;15.87;;;22.00;99.90;;;;;;5016087;28;20554;-65
2022/06/06 11:47:14;;;;;;;16.60;15.70;;;22.00;99.90;;;;;;5015024;28;20471;-66
2022/06/06 11:50:23;;;;;;;15.10;14.17;;;22.10;99.90;;;;;;5015431;28;20459;-66
2022/06/06 11:53:23;;;;;;;14.93;14.23;;;22.30;99.90;;;;;;5015885;28;20464;-67
2022/06/06 11:56:16;;;;;;;14.90;14.10;;;22.20;99.90;;;;;;5015200;28;20464;-68
2022/06/06 11:59:16;;;;;;;15.50;14.70;;;23.10;99.90;;;;;;5011116;28;20651;-66
2022/06/06 12:02:18;;;;;;;15.10;14.10;;;22.80;99.90;;;;;;5014097;28;20466;-65
2022/06/06 12:05:08;;;;;;;15.40;14.60;;;23.10;99.90;;;;;;5015855;28;20538;-67
2022/06/06 12:07:58;;;;;;;14.63;13.93;;;23.50;99.90;;;;;;5017045;28;20928;-67
2022/06/06 12:10:27;;;;;;;15.50;14.60;;;23.80;99.90;;;;;;5016924;28;20967;-68
2022/06/06 12:13:26;;;;;;;14.93;14.20;;;24.60;99.90;;;;;;5014480;28;20483;-68
2022/06/06 12:16:29;;;;;;;14.53;13.90;;;24.80;99.90;;;;;;5016632;28;20470;-67
2022/06/06 12:19:23;;;;;;;14.67;14.07;;;24.80;99.90;;;;;;5016958;28;20974;-68
2022/06/06 12:22:18;;;;;;;14.80;14.20;;;25.50;99.90;;;;;;5016256;28;20468;-67
2022/06/06 12:25:08;;;;;;;14.87;14.23;;;25.20;95.90;;;;;;5016816;28;20464;-67
2022/06/06 12:27:51;;;;;;;14.80;14.00;;;25.00;95.60;;;;;;5016900;28;20573;-67
2022/06/06 12:30:35;;;;;;;15.20;14.50;;;25.10;93.70;;;;;;5010840;28;20513;-67
2022/06/06 12:33:05;;;;;;;14.67;13.87;;;25.20;93.00;;;;;;5013016;28;20881;-67
2022/06/06 12:35:42;;;;;;;14.93;14.13;;;25.00;93.30;;;;;;5015364;28;20466;-67
2022/06/06 12:38:19;;;;;;;15.53;14.73;;;24.50;92.00;;;;;;5013969;28;20472;-67
2022/06/06 12:40:59;;;;;;;15.30;14.50;;;24.80;92.30;;;;;;5017382;28;20466;-68
2022/06/06 12:43:38;;;;;;;14.43;13.73;;;24.60;92.10;;;;;;5015369;28;20478;-70
2022/06/06 12:46:24;;;;;;;14.77;14.17;;;24.80;93.60;;;;;;5018545;28;20923;-68
2022/06/06 12:49:07;;;;;;;14.57;13.80;;;25.00;88.90;;;;;;5019135;28;20941;-67
2022/06/06 12:51:49;;;;;;;14.97;13.90;;;24.50;88.20;;;;;;5019724;28;20977;-67
2022/06/06 12:54:30;;;;;;;13.80;13.20;;;24.80;88.50;;;;;;5020256;28;20479;-67
2022/06/06 12:57:00;;;;;;;15.00;14.10;;;25.50;88.50;;;;;;5020545;28;20472;-67
2022/06/06 12:59:46;;;;;;;15.00;14.17;;;25.90;85.20;;;;;;5021009;28;20478;-67
2022/06/06 13:02:32;;;;;;;13.83;13.13;;;26.00;82.00;;;;;;5018128;28;20873;-67
2022/06/06 13:05:12;;;;;;;14.67;13.97;;;25.70;80.20;;;;;;5033780;28;20482;-67
2022/06/06 13:07:59;;;;;;;14.40;13.70;;;25.90;81.40;;;;;;5039238;28;20449;-67
2022/06/06 13:10:36;;;;;;;13.60;13.00;;;25.90;77.70;;;;;;5039821;28;21035;-67
2022/06/06 13:13:45;;;;;;;14.40;13.73;;;25.80;77.80;;;;;;5038243;28;20483;-65
2022/06/06 13:16:25;;;;;;;14.20;13.40;;;25.80;79.00;;;;;;4934000;28;20543;-68
2022/06/06 13:19:11;;;;;;;15.57;14.80;;;25.40;80.20;;;;;;4933746;28;20479;-67
2022/06/06 13:21:50;;;;;;;14.50;13.37;;;25.90;80.20;;;;;;5001420;28;20455;-66
2022/06/06 13:24:57;;;;;;;14.67;13.97;;;25.90;79.10;;;;;;5038221;28;20475;-67
2022/06/06 13:27:29;;;;;;;14.07;13.43;;;26.90;78.00;;;;;;5038354;28;20469;-68
2022/06/06 13:29:57;;;;;;;14.30;13.50;;;26.90;77.40;;;;;;5039967;28;20592;-68
2022/06/06 13:32:43;;;;;;;14.20;13.60;;;26.90;71.50;;;;;;5036813;28;20554;-68
2022/06/06 13:35:19;;;;;;;14.57;13.83;;;25.90;74.40;;;;;;5039294;28;20477;-69
2022/06/06 13:38:00;;;;;;;14.40;13.77;;;26.20;77.40;;;;;;5037422;28;20766;-68
2022/06/06 13:40:36;;;;;;;14.50;13.50;;;26.80;75.10;;;;;;5038246;28;20960;-68
2022/06/06 13:43:32;;;;;;;14.73;13.60;;;27.30;80.30;;;;;;5036613;28;20973;-69
2022/06/06 13:46:18;;;;;;;14.40;13.60;;;27.80;73.40;;;;;;5039630;28;20476;-69
2022/06/06 13:48:55;;;;;;;14.70;13.90;;;27.00;69.60;;;;;;5036626;28;20621;-68
2022/06/06 13:51:38;;;;;;;14.80;14.10;;;26.90;73.20;;;;;;5037956;28;20562;-68
2022/06/06 13:54:07;;;;;;;13.50;12.90;;;27.00;71.20;;;;;;5036681;28;20459;-68
2022/06/06 13:56:50;;;;;;;13.43;12.73;;;27.00;72.30;;;;;;5036423;28;20475;-68